Pacific Titan — WCZ6844 — position and weather

sailwx.info

Track history (hours):
 
Tides and Currents Weather Stations Pressure Air Temp Water Temp Dewpoint Dewpoint Depression Visibility Wind Speed Wind Dir Waves Ship Positions

Pacific Titan

Owner: WESTERN TOWBOAT CO, SEATTLE, WA. More information available from US FCC via Universal Licensing System and Coast Guard Vessel Documentation Center.

Last reported at 2016-Sep-25 12:33 UTC. Time now 2016-Sep-30 06:40 UTC.
Position N 51°13' W 127°52'.

Type: Tow > 200 m length. MMSI: 338855000.

Date/timePositionNaut miles runAvg speedWind from/ knotsBaromVisibWave heightAir tempDewpointWater temp
2016-Sep-25 12:33N 51°13' W 127°52'1010.1
2016-Sep-25 11:31N 51°05' W 127°43'1010.7
2016-Sep-25 10:33N 50°58' W 127°30'1111.4
2016-Sep-25 09:33N 50°50' W 127°17'2210.8
2016-Sep-25 07:32N 50°38' W 126°48'67 9.5
2016-Sep-25 00:33N 50°06' W 125°17'16 7.9
2016-Sep-24 22:33N 49°54' W 125°02'7 7.2
2016-Sep-24 21:33N 49°49' W 124°53'14 7.1
2016-Sep-24 19:33N 49°40' W 124°36'8 7.6
2016-Sep-24 18:33N 49°36' W 124°27'7 7.1
2016-Sep-24 17:33N 49°32' W 124°17'8 7.6
2016-Sep-24 16:33N 49°28' W 124°07'16 8.1
2016-Sep-24 14:33N 49°18' W 123°48'19 9.7
2016-Sep-24 12:33N 49°06' W 123°25'18 9.1
2016-Sep-24 10:33N 48°54' W 123°04'9 9.0
2016-Sep-24 09:33N 48°48' W 122°53'50 8.3
2016-Sep-24 03:30N 47°60' W 122°36'9 9.5
2016-Sep-24 02:33N 47°52' W 122°28'1010.3
2016-Sep-24 01:33N 47°42' W 122°27'8 7.6
2016-Sep-24 00:33N 47°35' W 122°22'4 0.8
2016-Sep-23 19:33N 47°39' W 122°22'0 0.0
2016-Sep-23 17:33N 47°39' W 122°22'0 0.0
2016-Sep-22 03:24N 47°39' W 122°22'4 1.3
2016-Sep-22 00:33N 47°36' W 122°22'8 7.8
2016-Sep-21 23:33N 47°43' W 122°27'1010.4
2016-Sep-21 22:33N 47°53' W 122°30'25 8.4
2016-Sep-21 19:33N 48°15' W 122°48'28 9.4
2016-Sep-21 16:33N 48°43' W 122°46'69 9.8
2016-Sep-21 09:33N 49°27' W 124°06'1010.3
2016-Sep-21 08:33N 49°33' W 124°20'3110.2
2016-Sep-21 05:33N 49°51' W 124°58'20 9.6
2016-Sep-21 03:31N 50°06' W 125°18'1110.3
2016-Sep-21 02:28N 50°16' W 125°24'8910.0
2016-Sep-20 17:33N 50°57' W 127°28'27 8.8
2016-Sep-20 14:26N 51°19' W 127°54'910.1
2016-Sep-20 13:31N 51°28' W 127°51'  
2016-Sep-17 19:13N 58°15' W 135°33'24 0.5
2016-Sep-15 22:04N 58°17' W 136°19'610.3
2016-Sep-15 21:31N 58°15' W 136°09'10 9.9
2016-Sep-15 20:33N 58°18' W 135°51'  
Track history (hours):
 
Tides and Currents Weather Stations Pressure Air Temp Water Temp Dewpoint Dewpoint Depression Visibility Wind Speed Wind Dir Waves Ship Positions

Pacific Titan

Owner: WESTERN TOWBOAT CO, SEATTLE, WA. More information available from US FCC via Universal Licensing System and Coast Guard Vessel Documentation Center.

Last reported at 2016-Sep-25 12:33 UTC. Time now 2016-Sep-30 06:40 UTC.
Position N 51°13' W 127°52'.

Type: Tow > 200 m length. MMSI: 338855000.

Date/timePositionNaut miles runAvg speedWind from/ knotsBaromVisibWave heightAir tempDewpointWater temp
2016-Sep-25 12:33N 51°13' W 127°52'1010.1
2016-Sep-25 11:31N 51°05' W 127°43'1010.7
2016-Sep-25 10:33N 50°58' W 127°30'1111.4
2016-Sep-25 09:33N 50°50' W 127°17'2210.8
2016-Sep-25 07:32N 50°38' W 126°48'67 9.5
2016-Sep-25 00:33N 50°06' W 125°17'16 7.9
2016-Sep-24 22:33N 49°54' W 125°02'7 7.2
2016-Sep-24 21:33N 49°49' W 124°53'14 7.1
2016-Sep-24 19:33N 49°40' W 124°36'8 7.6
2016-Sep-24 18:33N 49°36' W 124°27'7 7.1
2016-Sep-24 17:33N 49°32' W 124°17'8 7.6
2016-Sep-24 16:33N 49°28' W 124°07'16 8.1
2016-Sep-24 14:33N 49°18' W 123°48'19 9.7
2016-Sep-24 12:33N 49°06' W 123°25'18 9.1
2016-Sep-24 10:33N 48°54' W 123°04'9 9.0
2016-Sep-24 09:33N 48°48' W 122°53'50 8.3
2016-Sep-24 03:30N 47°60' W 122°36'9 9.5
2016-Sep-24 02:33N 47°52' W 122°28'1010.3
2016-Sep-24 01:33N 47°42' W 122°27'8 7.6
2016-Sep-24 00:33N 47°35' W 122°22'4 0.8
2016-Sep-23 19:33N 47°39' W 122°22'0 0.0
2016-Sep-23 17:33N 47°39' W 122°22'0 0.0
2016-Sep-22 03:24N 47°39' W 122°22'4 1.3
2016-Sep-22 00:33N 47°36' W 122°22'8 7.8
2016-Sep-21 23:33N 47°43' W 122°27'1010.4
2016-Sep-21 22:33N 47°53' W 122°30'25 8.4
2016-Sep-21 19:33N 48°15' W 122°48'28 9.4
2016-Sep-21 16:33N 48°43' W 122°46'69 9.8
2016-Sep-21 09:33N 49°27' W 124°06'1010.3
2016-Sep-21 08:33N 49°33' W 124°20'3110.2
2016-Sep-21 05:33N 49°51' W 124°58'20 9.6
2016-Sep-21 03:31N 50°06' W 125°18'1110.3
2016-Sep-21 02:28N 50°16' W 125°24'8910.0
2016-Sep-20 17:33N 50°57' W 127°28'27 8.8
2016-Sep-20 14:26N 51°19' W 127°54'910.1
2016-Sep-20 13:31N 51°28' W 127°51'  
2016-Sep-17 19:13N 58°15' W 135°33'24 0.5
2016-Sep-15 22:04N 58°17' W 136°19'610.3
2016-Sep-15 21:31N 58°15' W 136°09'10 9.9
2016-Sep-15 20:33N 58°18' W 135°51'  

Dump ship's entire track history